Time;durP1;ratioP1;P1;durP2;ratioP2;P2;SDS_P1;SDS_P2;PMS_P1;PMS_P2;Temp;Humidity;BMP_temperature;BMP_pressure;BME280_temperature;BME280_humidity;BME280_pressure;Samples;Min_cycle;Max_cycle;Signal;HPM_P1;HPM_P2
2019/05/26 00:00:46;;;;;;;2.9;1.9;;;;;;;;;;;;;
2019/05/26 00:03:09;;;;;;;3.3;2.5;;;;;;;;;;;;;
2019/05/26 00:05:39;;;;;;;2.9;1.9;;;;;;;;;;;;;
2019/05/26 00:08:05;;;;;;;3.2;2;;;;;;;;;;;;;
2019/05/26 00:10:29;;;;;;;2.7;2.2;;;;;;;;;;;;;
2019/05/26 00:12:56;;;;;;;3;2.2;;;;;;;;;;;;;
2019/05/26 00:15:23;;;;;;;3.9;2.6;;;;;;;;;;;;;
2019/05/26 00:17:49;;;;;;;3.3;2.1;;;;;;;;;;;;;
2019/05/26 00:20:21;;;;;;;3.9;3.1;;;;;;;;;;;;;
2019/05/26 00:22:46;;;;;;;2.8;2.6;;;;;;;;;;;;;
2019/05/26 00:25:15;;;;;;;3;2.7;;;;;;;;;;;;;
2019/05/26 00:27:37;;;;;;;2.7;2.5;;;;;;;;;;;;;
2019/05/26 00:30:05;;;;;;;3.3;3;;;;;;;;;;;;;
2019/05/26 00:32:32;;;;;;;3.2;2.9;;;;;;;;;;;;;
2019/05/26 00:34:57;;;;;;;5.2;3.8;;;;;;;;;;;;;
2019/05/26 00:37:29;;;;;;;4;3.6;;;;;;;;;;;;;
2019/05/26 00:40:05;;;;;;;4.2;3.8;;;;;;;;;;;;;
2019/05/26 00:42:37;;;;;;;3.8;3.5;;;;;;;;;;;;;
2019/05/26 00:45:02;;;;;;;5.8;3.9;;;;;;;;;;;;;
2019/05/26 00:47:34;;;;;;;3.6;3.3;;;;;;;;;;;;;
2019/05/26 00:49:54;;;;;;;4.6;3.2;;;;;;;;;;;;;
2019/05/26 00:52:23;;;;;;;3;2.1;;;;;;;;;;;;;
2019/05/26 00:54:46;;;;;;;5;2.4;;;;;;;;;;;;;
2019/05/26 00:57:21;;;;;;;2.5;2.2;;;;;;;;;;;;;
2019/05/26 00:59:45;;;;;;;2.6;2.4;;;;;;;;;;;;;
2019/05/26 01:02:11;;;;;;;3.1;1.9;;;;;;;;;;;;;
2019/05/26 01:04:38;;;;;;;2.5;2.3;;;;;;;;;;;;;
2019/05/26 01:07:04;;;;;;;4.6;3.4;;;;;;;;;;;;;
2019/05/26 01:09:28;;;;;;;4.6;3.4;;;;;;;;;;;;;
2019/05/26 01:11:56;;;;;;;3.8;2.8;;;;;;;;;;;;;
2019/05/26 01:14:21;;;;;;;2.9;2.5;;;;;;;;;;;;;
2019/05/26 01:16:45;;;;;;;3.7;2.6;;;;;;;;;;;;;
2019/05/26 01:19:13;;;;;;;4.9;2.6;;;;;;;;;;;;;
2019/05/26 01:21:38;;;;;;;3.5;3;;;;;;;;;;;;;
2019/05/26 01:24:05;;;;;;;5.2;2.6;;;;;;;;;;;;;
2019/05/26 01:26:32;;;;;;;3.4;2.2;;;;;;;;;;;;;
2019/05/26 01:29:01;;;;;;;5;3;;;;;;;;;;;;;
2019/05/26 01:31:27;;;;;;;4.2;2.6;;;;;;;;;;;;;
2019/05/26 01:33:55;;;;;;;4.8;3;;;;;;;;;;;;;
2019/05/26 01:36:25;;;;;;;3.1;2.8;;;;;;;;;;;;;
2019/05/26 01:38:49;;;;;;;4.3;3.2;;;;;;;;;;;;;
2019/05/26 01:41:14;;;;;;;3.7;3.1;;;;;;;;;;;;;
2019/05/26 01:43:44;;;;;;;3.7;3.3;;;;;;;;;;;;;
2019/05/26 01:46:12;;;;;;;4.4;3.3;;;;;;;;;;;;;
2019/05/26 01:48:36;;;;;;;4.7;3.6;;;;;;;;;;;;;
2019/05/26 01:51:01;;;;;;;4.1;3.1;;;;;;;;;;;;;
2019/05/26 01:53:27;;;;;;;4.2;3.6;;;;;;;;;;;;;
2019/05/26 01:55:55;;;;;;;4.3;3.9;;;;;;;;;;;;;
2019/05/26 01:58:19;;;;;;;4.2;3.5;;;;;;;;;;;;;
2019/05/26 02:00:45;;;;;;;4.9;3.9;;;;;;;;;;;;;
2019/05/26 02:03:11;;;;;;;4;3.1;;;;;;;;;;;;;
2019/05/26 02:05:37;;;;;;;3.8;3.4;;;;;;;;;;;;;
2019/05/26 02:08:08;;;;;;;4.7;3.4;;;;;;;;;;;;;
2019/05/26 02:10:35;;;;;;;5.9;3.6;;;;;;;;;;;;;
2019/05/26 02:13:02;;;;;;;3.9;3.6;;;;;;;;;;;;;
2019/05/26 02:15:26;;;;;;;4;3.6;;;;;;;;;;;;;
2019/05/26 02:17:51;;;;;;;4.1;3.7;;;;;;;;;;;;;
2019/05/26 02:20:17;;;;;;;4.6;3.5;;;;;;;;;;;;;
2019/05/26 02:22:44;;;;;;;3.9;3.2;;;;;;;;;;;;;
2019/05/26 02:25:06;;;;;;;3.5;3.2;;;;;;;;;;;;;
2019/05/26 02:27:32;;;;;;;4.6;3.5;;;;;;;;;;;;;
2019/05/26 02:29:58;;;;;;;3.6;3.3;;;;;;;;;;;;;
2019/05/26 02:32:23;;;;;;;4.4;3;;;;;;;;;;;;;
2019/05/26 02:34:51;;;;;;;3.7;3.1;;;;;;;;;;;;;
2019/05/26 02:37:18;;;;;;;4.1;3.7;;;;;;;;;;;;;
2019/05/26 02:39:42;;;;;;;4.2;3.5;;;;;;;;;;;;;
2019/05/26 02:42:07;;;;;;;3.6;3.3;;;;;;;;;;;;;
2019/05/26 02:44:32;;;;;;;3.5;3.2;;;;;;;;;;;;;
2019/05/26 02:46:59;;;;;;;3.7;3.4;;;;;;;;;;;;;
2019/05/26 02:49:24;;;;;;;3.9;3.4;;;;;;;;;;;;;
2019/05/26 02:51:55;;;;;;;4.6;3.6;;;;;;;;;;;;;
2019/05/26 02:54:17;;;;;;;4.3;3.4;;;;;;;;;;;;;
2019/05/26 02:56:43;;;;;;;5;3.8;;;;;;;;;;;;;
2019/05/26 02:59:12;;;;;;;4.1;3.7;;;;;;;;;;;;;
2019/05/26 03:01:35;;;;;;;4.8;4;;;;;;;;;;;;;
2019/05/26 03:04:01;;;;;;;5.4;3.9;;;;;;;;;;;;;
2019/05/26 03:06:30;;;;;;;4.4;3.7;;;;;;;;;;;;;
2019/05/26 03:08:54;;;;;;;4.1;3.5;;;;;;;;;;;;;
2019/05/26 03:11:17;;;;;;;4.1;3.7;;;;;;;;;;;;;
2019/05/26 03:13:45;;;;;;;5.5;4.4;;;;;;;;;;;;;
2019/05/26 03:16:11;;;;;;;4.4;4;;;;;;;;;;;;;
2019/05/26 03:18:35;;;;;;;5.7;4.2;;;;;;;;;;;;;
2019/05/26 03:20:59;;;;;;;5;4.3;;;;;;;;;;;;;
2019/05/26 03:23:26;;;;;;;5.9;4;;;;;;;;;;;;;
2019/05/26 03:25:52;;;;;;;4.7;4.2;;;;;;;;;;;;;
2019/05/26 03:28:19;;;;;;;4.2;3.7;;;;;;;;;;;;;
2019/05/26 03:30:44;;;;;;;5;3.9;;;;;;;;;;;;;
2019/05/26 03:33:08;;;;;;;5.4;4.3;;;;;;;;;;;;;
2019/05/26 03:35:34;;;;;;;3.6;3.3;;;;;;;;;;;;;
2019/05/26 03:37:59;;;;;;;5.6;3.2;;;;;;;;;;;;;
2019/05/26 03:40:25;;;;;;;3.5;3.2;;;;;;;;;;;;;
2019/05/26 03:42:52;;;;;;;4.7;3.4;;;;;;;;;;;;;
2019/05/26 03:45:16;;;;;;;3.5;3.2;;;;;;;;;;;;;
2019/05/26 03:47:42;;;;;;;3.9;3.5;;;;;;;;;;;;;
2019/05/26 03:50:10;;;;;;;3.4;3;;;;;;;;;;;;;
2019/05/26 03:52:33;;;;;;;3.2;2.9;;;;;;;;;;;;;
2019/05/26 03:55:02;;;;;;;4;2.9;;;;;;;;;;;;;
2019/05/26 03:57:29;;;;;;;4.1;2.7;;;;;;;;;;;;;
2019/05/26 03:59:53;;;;;;;3.3;3;;;;;;;;;;;;;
2019/05/26 04:02:46;;;;;;;4.3;2.9;;;;;;;12.78;83.63281;938.7442;;;;
2019/05/26 04:05:10;;;;;;;3.8;2.9;;;;;;;12.46;84.69531;938.764;;;;
2019/05/26 04:07:42;;;;;;;4.1;3.3;;;;;;;12.62;84.37012;938.8118;;;;
2019/05/26 04:10:09;;;;;;;3.9;2.9;;;;;;;12.64;84.22559;938.8311;;;;
2019/05/26 04:12:37;;;;;;;3.5;3.1;;;;;;;12.58;84.52344;938.8329;;;;
2019/05/26 04:15:13;;;;;;;3.3;2.7;;;;;;;12.34;85.33594;938.7928;;;;
2019/05/26 04:17:35;;;;;;;2.9;2.7;;;;;;;12.33;85.54004;938.8239;;;;
2019/05/26 04:20:06;;;;;;;4;3.1;;;;;;;12.56;84.8291;938.7539;;;;
2019/05/26 04:22:37;;;;;;;3;2.7;;;;;;;12.72;84.34277;938.764;;;;
2019/05/26 04:25:00;;;;;;;3.7;2.6;;;;;;;12.94;83.35352;938.8006;;;;
2019/05/26 04:27:37;;;;;;;3;2.6;;;;;;;12.82;83.36523;938.7534;;;;
2019/05/26 04:30:22;;;;;;;3.6;2.5;;;;;;;12.88;83.26074;938.8069;;;;
2019/05/26 04:32:49;;;;;;;2.9;2.3;;;;;;;12.83;83.74414;938.8253;;;;
2019/05/26 04:35:16;;;;;;;3.1;2.7;;;;;;;12.87;83.50098;938.8805;;;;
2019/05/26 04:37:49;;;;;;;3.8;2.9;;;;;;;12.99;83.87891;938.8934;;;;
2019/05/26 04:40:22;;;;;;;3.7;2.7;;;;;;;13.04;83.10645;938.8378;;;;
2019/05/26 04:42:56;;;;;;;2.9;2.6;;;;;;;13.17;83.07715;938.8451;;;;
2019/05/26 04:45:28;;;;;;;3.1;2.3;;;;;;;13.12;82.72168;938.8035;;;;
2019/05/26 04:47:55;;;;;;;2.5;2.3;;;;;;;13.16;82.74023;938.7907;;;;
2019/05/26 04:50:21;;;;;;;2.5;2;;;;;;;13.02;82.58789;938.8011;;;;
2019/05/26 04:52:50;;;;;;;2.4;2.2;;;;;;;13.01;82.89453;938.8152;;;;
2019/05/26 04:55:15;;;;;;;3.9;2.4;;;;;;;13.02;83.03418;938.8826;;;;
2019/05/26 04:57:41;;;;;;;4;2.3;;;;;;;12.92;83.46289;938.7902;;;;
2019/05/26 05:00:11;;;;;;;2.3;2.1;;;;;;;12.92;83.30273;938.8502;;;;
2019/05/26 05:02:43;;;;;;;2.1;1.8;;;;;;;12.74;83.25781;938.8424;;;;
2019/05/26 05:05:07;;;;;;;2.3;2.1;;;;;;;12.77;83.84863;938.8304;;;;
2019/05/26 05:07:39;;;;;;;2.3;2;;;;;;;12.39;84.93359;938.8689;;;;
2019/05/26 05:10:06;;;;;;;5.4;2.6;;;;;;;12.33;85.88477;938.8416;;;;
2019/05/26 05:12:33;;;;;;;2.6;2.4;;;;;;;12.38;86.50098;938.7938;;;;
2019/05/26 05:15:02;;;;;;;2.4;2.2;;;;;;;12.49;85.80176;938.8167;;;;
2019/05/26 05:17:31;;;;;;;3.9;2.8;;;;;;;12.67;86.07813;938.8111;;;;
2019/05/26 05:19:59;;;;;;;3.2;2.4;;;;;;;12.81;84.44141;938.8569;;;;
2019/05/26 05:22:28;;;;;;;2.3;2.1;;;;;;;12.86;83.96973;938.8645;;;;
2019/05/26 05:25:03;;;;;;;5.2;2.3;;;;;;;12.95;83.44727;938.8766;;;;
2019/05/26 05:27:39;;;;;;;4.4;2.5;;;;;;;12.68;84.24414;938.887;;;;
2019/05/26 05:30:03;;;;;;;5.4;2.6;;;;;;;12.68;84.81836;938.9294;;;;
2019/05/26 05:32:30;;;;;;;2.9;2.5;;;;;;;12.8;84.34766;938.9041;;;;
2019/05/26 05:35:00;;;;;;;2.7;2.3;;;;;;;12.83;84.30664;938.902;;;;
2019/05/26 05:37:35;;;;;;;4.1;2.9;;;;;;;13.14;84.70117;938.8867;;;;
2019/05/26 05:39:58;;;;;;;3.4;2.3;;;;;;;13.33;83.1748;938.8976;;;;
2019/05/26 05:42:27;;;;;;;2.4;2.2;;;;;;;13.52;81.63672;938.8475;;;;
2019/05/26 05:45:04;;;;;;;3.3;2.6;;;;;;;13.51;82.89941;938.8915;;;;
2019/05/26 05:47:27;;;;;;;4.4;2.7;;;;;;;13.67;81.90527;938.8923;;;;
2019/05/26 05:49:49;;;;;;;4;2.8;;;;;;;13.8;81.43555;938.8738;;;;
2019/05/26 05:52:21;;;;;;;4.9;3;;;;;;;13.85;80.44336;938.8515;;;;
2019/05/26 05:54:50;;;;;;;5.3;2.6;;;;;;;13.95;79.86328;938.9048;;;;
2019/05/26 05:57:13;;;;;;;3.2;2.2;;;;;;;14.01;80.17383;938.916;;;;
2019/05/26 05:59:41;;;;;;;2.5;1.9;;;;;;;13.96;78.69141;938.8528;;;;
2019/05/26 06:02:10;;;;;;;1.9;1.2;;;;;;;13.65;78.85449;938.8516;;;;
2019/05/26 06:04:37;;;;;;;4.2;1.3;;;;;;;13.73;78.49902;938.805;;;;
2019/05/26 06:07:06;;;;;;;1.4;1.3;;;;;;;13.78;79.00391;938.8505;;;;
2019/05/26 06:09:37;;;;;;;2.3;1.6;;;;;;;13.94;79.0459;938.8761;;;;
2019/05/26 06:12:04;;;;;;;1.9;1.4;;;;;;;14.12;78.41113;938.8822;;;;
2019/05/26 06:14:33;;;;;;;2.6;1.5;;;;;;;14.22;78.54297;938.9239;;;;
2019/05/26 06:17:01;;;;;;;2.9;1.6;;;;;;;14.27;78.06836;938.8836;;;;
2019/05/26 06:19:31;;;;;;;1.9;1.5;;;;;;;14.19;78.37695;938.9092;;;;
2019/05/26 06:22:01;;;;;;;1.7;1.4;;;;;;;13.98;78.82129;938.8808;;;;
2019/05/26 06:24:38;;;;;;;4.2;1.6;;;;;;;14.12;79.26367;938.9335;;;;
2019/05/26 06:27:11;;;;;;;2.7;1.6;;;;;;;14.11;78.70703;938.9263;;;;
2019/05/26 06:29:42;;;;;;;2.9;1.7;;;;;;;14.29;79.99707;938.9324;;;;
2019/05/26 06:32:13;;;;;;;2.2;1.4;;;;;;;14.4;78.96875;939.0105;;;;
2019/05/26 06:34:38;;;;;;;2.5;1.6;;;;;;;14.58;78.5957;938.9871;;;;
2019/05/26 06:37:13;;;;;;;2.9;1.8;;;;;;;14.55;77.32227;939.0209;;;;
2019/05/26 06:39:41;;;;;;;3.4;1.8;;;;;;;14.52;78.61914;938.9601;;;;
2019/05/26 06:42:20;;;;;;;3.5;1.5;;;;;;;14.58;77.17871;938.9278;;;;
2019/05/26 06:44:51;;;;;;;2.6;1.4;;;;;;;14.42;77.85254;939.0388;;;;
2019/05/26 06:47:18;;;;;;;1.7;1.3;;;;;;;14.43;77.67188;939.0291;;;;
2019/05/26 06:49:47;;;;;;;2.7;1.3;;;;;;;14.4;77.0791;938.9977;;;;
2019/05/26 06:52:16;;;;;;;1.5;1.2;;;;;;;14.34;76.96484;939.0172;;;;
2019/05/26 06:54:54;;;;;;;3.2;1.4;;;;;;;14.44;78.56055;939.0277;;;;
2019/05/26 06:57:20;;;;;;;2.7;1.4;;;;;;;14.7;80.04688;939.0556;;;;
2019/05/26 06:59:59;;;;;;;2;1.3;;;;;;;14.7;76.68066;939.0477;;;;
2019/05/26 07:02:21;;;;;;;2.7;1.3;;;;;;;14.75;76.89746;939.0803;;;;
2019/05/26 07:04:56;;;;;;;2.5;1.2;;;;;;;15.03;75.49512;939.0319;;;;
2019/05/26 07:07:31;;;;;;;2.4;1.3;;;;;;;14.64;75.77051;939.1266;;;;
2019/05/26 07:09:59;;;;;;;2;1.1;;;;;;;14.53;77.1709;939.1252;;;;
2019/05/26 07:12:25;;;;;;;2.8;1.6;;;;;;;14.88;78.90527;939.1255;;;;
2019/05/26 07:14:56;;;;;;;2;1.3;;;;;;;15.13;75.39551;939.0809;;;;
2019/05/26 07:17:23;;;;;;;1.1;1;;;;;;;14.91;73.92773;939.1655;;;;
2019/05/26 07:19:59;;;;;;;2.6;1.2;;;;;;;14.72;74.08984;939.1092;;;;
2019/05/26 07:22:25;;;;;;;1.5;1.2;;;;;;;14.53;75.76465;939.1676;;;;
2019/05/26 07:24:52;;;;;;;4.7;1.1;;;;;;;14.84;75.76074;939.113;;;;
2019/05/26 07:27:37;;;;;;;2.7;1.1;;;;;;;15.25;75.60059;939.0852;;;;
2019/05/26 07:30:10;;;;;;;2.8;1.2;;;;;;;15.59;74.2832;939.0775;;;;
2019/05/26 07:32:45;;;;;;;1.3;1;;;;;;;15.83;75.00781;939.0542;;;;
2019/05/26 07:35:06;;;;;;;2.1;1.1;;;;;;;16.16;74.10352;939.1027;;;;
2019/05/26 07:37:31;;;;;;;2;0.9;;;;;;;15.69;71.40137;939.0272;;;;
2019/05/26 07:40:02;;;;;;;3.4;1;;;;;;;16.29;70.14551;938.9802;;;;
2019/05/26 07:42:30;;;;;;;2.1;1;;;;;;;16.67;68.39941;939.0528;;;;
2019/05/26 07:44:58;;;;;;;0.9;0.6;;;;;;;16.51;62.91211;939.0405;;;;
2019/05/26 07:47:35;;;;;;;1.8;0.9;;;;;;;16.42;68.10742;939.0984;;;;
2019/05/26 07:50:07;;;;;;;2.8;1.8;;;;;;;16.72;67.77148;939.0851;;;;
2019/05/26 07:52:41;;;;;;;2.2;1.6;;;;;;;17.15;65.05566;939.009;;;;
2019/05/26 07:55:20;;;;;;;3.7;1.3;;;;;;;17.13;66.57227;938.9465;;;;
2019/05/26 07:57:52;;;;;;;1.1;0.8;;;;;;;17.14;65.09961;938.9802;;;;
2019/05/26 08:00:23;;;;;;;1;0.8;;;;;;;16.43;66.83496;938.9554;;;;
2019/05/26 08:02:47;;;;;;;1.4;0.9;;;;;;;16.19;66.79785;938.9617;;;;
2019/05/26 08:05:14;;;;;;;1.4;0.8;;;;;;;16.78;67.75684;938.8937;;;;
2019/05/26 08:07:55;;;;;;;2.4;0.9;;;;;;;17.03;65.43164;938.997;;;;
2019/05/26 08:10:20;;;;;;;0.9;0.5;;;;;;;16.77;61.76855;938.9501;;;;
2019/05/26 08:12:53;;;;;;;0.9;0.8;;;;;;;17.15;64.04785;938.9358;;;;
2019/05/26 08:15:32;;;;;;;1.4;0.7;;;;;;;17.69;61.73438;938.9406;;;;
2019/05/26 08:18:00;;;;;;;2.8;0.7;;;;;;;18.03;59.07617;938.8989;;;;
2019/05/26 08:20:29;;;;;;;1.4;0.7;;;;;;;18.36;60.13086;938.9229;;;;
2019/05/26 08:22:56;;;;;;;1.2;0.6;;;;;;;18.73;55.0293;938.9025;;;;
2019/05/26 08:25:27;;;;;;;0.8;0.6;;;;;;;19.06;53.05566;938.9387;;;;
2019/05/26 08:27:59;;;;;;;1.1;0.6;;;;;;;18.84;55.99707;938.8764;;;;
2019/05/26 08:30:31;;;;;;;0.6;0.6;;;;;;;19.43;53.42578;938.8098;;;;
2019/05/26 08:32:56;;;;;;;0.8;0.7;;;;;;;20.81;53.8623;938.7885;;;;
2019/05/26 08:35:25;;;;;;;2.9;0.6;;;;;;;22.13;47.23438;938.7257;;;;
2019/05/26 08:37:54;;;;;;;1.5;0.5;;;;;;;22.47;46.28516;938.7438;;;;
2019/05/26 08:40:28;;;;;;;1.5;0.6;;;;;;;21.37;47.79785;938.7307;;;;
2019/05/26 08:43:00;;;;;;;0.8;0.6;;;;;;;20.86;49.13379;938.7258;;;;
2019/05/26 08:45:31;;;;;;;1.6;0.7;;;;;;;21.19;51.95605;938.6594;;;;
2019/05/26 08:48:03;;;;;;;1.5;0.6;;;;;;;19.92;56.40234;938.6473;;;;
2019/05/26 08:50:48;;;;;;;2.6;0.8;;;;;;;19.83;55.43359;938.6425;;;;
2019/05/26 08:53:21;;;;;;;1.3;0.7;;;;;;;20.02;52.86816;938.6774;;;;
2019/05/26 08:55:51;;;;;;;1.6;0.7;;;;;;;19.79;51.65039;938.5865;;;;
2019/05/26 08:58:15;;;;;;;1.3;0.8;;;;;;;19.77;52.79004;938.5985;;;;
2019/05/26 09:00:45;;;;;;;1;0.8;;;;;;;19.88;52.39551;938.5887;;;;
2019/05/26 09:03:17;;;;;;;0.8;0.6;;;;;;;19.83;52.96191;938.5988;;;;
2019/05/26 09:05:44;;;;;;;0.9;0.7;;;;;;;19.6;50.90527;938.5545;;;;
2019/05/26 09:08:16;;;;;;;1.2;0.8;;;;;;;19.78;50.11035;938.5747;;;;
2019/05/26 09:10:43;;;;;;;3.5;0.9;;;;;;;19.88;51.82422;938.527;;;;
2019/05/26 09:13:18;;;;;;;1;0.9;;;;;;;19.51;55.44043;938.5066;;;;
2019/05/26 09:15:46;;;;;;;4;1.2;;;;;;;19.85;51.91309;938.558;;;;
2019/05/26 09:18:21;;;;;;;2.6;1;;;;;;;19.97;51.25195;938.4255;;;;
2019/05/26 09:20:40;;;;;;;2.2;1;;;;;;;20.34;48.71387;938.4578;;;;
2019/05/26 09:23:07;;;;;;;1.8;1;;;;;;;20.39;49.875;938.4827;;;;
2019/05/26 09:25:39;;;;;;;1.3;0.9;;;;;;;20.45;47.58008;938.4233;;;;
2019/05/26 09:28:21;;;;;;;1.8;1.2;;;;;;;20.45;50.88672;938.4013;;;;
2019/05/26 09:30:44;;;;;;;2.8;1.1;;;;;;;20.39;53.47266;938.4129;;;;
2019/05/26 09:33:08;;;;;;;2;1.1;;;;;;;20.48;50.92578;938.3275;;;;
2019/05/26 09:35:37;;;;;;;3.4;1.4;;;;;;;20.2;53.8457;938.2699;;;;
2019/05/26 09:38:09;;;;;;;1.4;1.2;;;;;;;20.56;47.54688;938.3431;;;;
2019/05/26 09:40:34;;;;;;;2;1.3;;;;;;;20.63;49.77441;938.2992;;;;
2019/05/26 09:43:05;;;;;;;2.2;1.2;;;;;;;20.77;49.80176;938.2936;;;;
2019/05/26 09:45:32;;;;;;;4.1;1.2;;;;;;;20.71;49.02344;938.3357;;;;
2019/05/26 09:48:10;;;;;;;2.7;1.3;;;;;;;20.57;53.62305;938.3112;;;;
2019/05/26 09:50:47;;;;;;;3.4;1.6;;;;;;;20.73;56.35449;938.2509;;;;
2019/05/26 09:53:05;;;;;;;2.1;1.2;;;;;;;20.56;55.81836;938.2654;;;;
2019/05/26 09:55:39;;;;;;;2;1.1;;;;;;;19.83;54.53711;938.2885;;;;
2019/05/26 09:58:04;;;;;;;3.6;1.1;;;;;;;20.41;56.10254;938.2379;;;;
2019/05/26 10:00:33;;;;;;;3.2;1.2;;;;;;;20.75;55.375;938.2439;;;;
2019/05/26 10:03:03;;;;;;;3.8;1.3;;;;;;;20.56;55.03613;938.2047;;;;
2019/05/26 10:05:34;;;;;;;1.5;1.3;;;;;;;20.55;50.04492;938.2935;;;;
2019/05/26 10:08:03;;;;;;;1.5;1.2;;;;;;;20.34;49.49609;938.2817;;;;
2019/05/26 10:10:44;;;;;;;1.8;1.2;;;;;;;19.91;52.58594;938.3122;;;;
2019/05/26 10:13:27;;;;;;;2;1.2;;;;;;;19.81;52.23535;938.325;;;;
2019/05/26 10:15:55;;;;;;;1.7;1.2;;;;;;;20.17;53.09668;938.269;;;;
2019/05/26 10:18:22;;;;;;;2.1;1.4;;;;;;;20.15;57.54102;938.2372;;;;
2019/05/26 10:20:56;;;;;;;1.9;1.4;;;;;;;20.12;55.72656;938.2164;;;;
2019/05/26 10:23:41;;;;;;;1.6;1.4;;;;;;;20.48;49.23242;938.22;;;;
2019/05/26 10:26:13;;;;;;;3.6;1.6;;;;;;;20.71;51.83887;938.2202;;;;
2019/05/26 10:28:40;;;;;;;2.6;1.6;;;;;;;20.77;53.44824;938.2548;;;;
2019/05/26 10:31:09;;;;;;;2;1.8;;;;;;;20.8;52.03809;938.1779;;;;
2019/05/26 10:33:49;;;;;;;2.3;1.6;;;;;;;20.8;47.07031;938.0772;;;;
2019/05/26 10:36:14;;;;;;;1.8;1.5;;;;;;;21.06;46.55859;938.0733;;;;
2019/05/26 10:38:47;;;;;;;2.8;1.4;;;;;;;21.39;45.00195;938.0623;;;;
2019/05/26 10:41:09;;;;;;;3.2;1.4;;;;;;;21.83;46.68848;938.1312;;;;
2019/05/26 10:43:37;;;;;;;2.4;1.4;;;;;;;22.14;46.36914;938.0667;;;;
2019/05/26 10:46:02;;;;;;;2.1;1.4;;;;;;;22.07;46.0332;938.1074;;;;
2019/05/26 10:48:45;;;;;;;2;1.5;;;;;;;21.61;48.38574;938.015;;;;
2019/05/26 10:51:32;;;;;;;3.4;1.7;;;;;;;22.07;47.4502;938.0905;;;;
2019/05/26 10:54:03;;;;;;;3.5;1.7;;;;;;;21.81;46.93066;938.0613;;;;
2019/05/26 10:56:34;;;;;;;1.7;1.6;;;;;;;21.6;47.59961;938.0469;;;;
2019/05/26 10:59:10;;;;;;;2.7;1.6;;;;;;;22.04;47.77539;938.0686;;;;
2019/05/26 11:01:34;;;;;;;1.9;1.6;;;;;;;21.98;46.56152;938.0938;;;;
2019/05/26 11:04:08;;;;;;;2.9;1.4;;;;;;;22.44;46.97363;938.0639;;;;
2019/05/26 11:06:40;;;;;;;2.9;1.5;;;;;;;22.18;47.63867;938.0522;;;;
2019/05/26 11:09:12;;;;;;;1.8;1.4;;;;;;;21.79;44.05859;938.0036;;;;
2019/05/26 11:11:43;;;;;;;2.1;1.4;;;;;;;21.49;47.50586;937.9802;;;;
2019/05/26 11:14:18;;;;;;;3.1;1.3;;;;;;;21.5;49.22754;937.957;;;;
2019/05/26 11:16:42;;;;;;;4.2;1.3;;;;;;;21.5;48.53711;937.9402;;;;
2019/05/26 11:19:11;;;;;;;2.6;1.4;;;;;;;21.3;47.38086;937.9235;;;;
2019/05/26 11:21:37;;;;;;;4.9;1.3;;;;;;;20.88;51.64941;937.9416;;;;
2019/05/26 11:24:04;;;;;;;1.6;1.3;;;;;;;21.11;46.14355;937.8895;;;;
2019/05/26 11:26:31;;;;;;;2.6;1.4;;;;;;;21.27;48.34863;937.9199;;;;
2019/05/26 11:29:01;;;;;;;1.6;1.3;;;;;;;21.21;46.16504;937.9057;;;;
2019/05/26 11:36:53;;;;;;;1.5;1.4;;;;;;;20.97;47.06445;937.8005;;;;
2019/05/26 11:39:22;;;;;;;2.6;1.4;;;;;;;21.06;48.4541;937.8311;;;;
2019/05/26 11:41:47;;;;;;;3.8;1.3;;;;;;;21.12;49.2207;937.8276;;;;
2019/05/26 11:44:18;;;;;;;4.9;1.4;;;;;;;20.96;48.50195;937.7706;;;;
2019/05/26 11:46:55;;;;;;;1.5;1.3;;;;;;;20.62;50.69629;937.7695;;;;
2019/05/26 11:49:19;;;;;;;2;1.2;;;;;;;20.92;47.03613;937.742;;;;
2019/05/26 11:51:53;;;;;;;2;1.3;;;;;;;21.06;50.14941;937.7195;;;;
2019/05/26 11:54:26;;;;;;;1.2;1.1;;;;;;;21.45;48.32129;937.6314;;;;
2019/05/26 11:56:58;;;;;;;2.1;1.1;;;;;;;21.81;46.52148;937.6023;;;;
2019/05/26 11:59:28;;;;;;;3.1;1.2;;;;;;;21.76;48.98828;937.6566;;;;
2019/05/26 12:02:02;;;;;;;2.8;1.2;;;;;;;21.4;49.67285;937.6465;;;;
2019/05/26 12:04:38;;;;;;;2;1.2;;;;;;;21.45;46.81055;937.6664;;;;
2019/05/26 12:07:19;;;;;;;4.4;1.4;;;;;;;21.81;48.23242;937.6581;;;;
2019/05/26 12:09:48;;;;;;;1.3;1.2;;;;;;;21.79;45.48828;937.6096;;;;
2019/05/26 12:12:16;;;;;;;2.2;1.2;;;;;;;21.88;47.65332;937.4852;;;;
2019/05/26 12:14:56;;;;;;;1.8;1.2;;;;;;;21.92;47.41211;937.5575;;;;
2019/05/26 12:17:54;;;;;;;1.8;1.2;;;;;;;21.4;49.95508;937.5726;;;;
2019/05/26 12:20:29;;;;;;;1.6;1.2;;;;;;;20.96;49.56543;937.5555;;;;
2019/05/26 12:22:54;;;;;;;1.3;1;;;;;;;21.14;48.52051;937.5574;;;;
2019/05/26 12:25:25;;;;;;;4;1.3;;;;;;;21.15;50.3584;937.5085;;;;
2019/05/26 12:27:58;;;;;;;1.2;1.1;;;;;;;21.23;47.86523;937.5011;;;;
2019/05/26 12:30:32;;;;;;;1.4;1.2;;;;;;;21.4;44.99121;937.452;;;;
2019/05/26 12:33:08;;;;;;;1.4;1.2;;;;;;;21.28;49.78906;937.4252;;;;
2019/05/26 12:35:45;;;;;;;1.6;1.2;;;;;;;20.92;47.57324;937.3714;;;;
2019/05/26 12:42:05;;;;;;;1.8;1.4;;;;;;;21.69;48.28809;937.3641;;;;
2019/05/26 12:44:47;;;;;;;1.2;1.1;;;;;;;21.92;46.0293;937.2981;;;;
2019/05/26 12:47:17;;;;;;;2;1.4;;;;;;;22.2;47.46484;937.2883;;;;
2019/05/26 12:49:42;;;;;;;3;1.3;;;;;;;21.98;47.33496;937.2545;;;;
2019/05/26 12:52:11;;;;;;;1.8;1.3;;;;;;;22.09;49.53906;937.2269;;;;
2019/05/26 12:54:41;;;;;;;3;1.2;;;;;;;21.83;47.4375;937.2282;;;;
2019/05/26 12:57:11;;;;;;;2.3;1.4;;;;;;;22.19;47.24121;937.1856;;;;
2019/05/26 12:59:42;;;;;;;2;1.1;;;;;;;22.11;46.3291;937.2196;;;;
2019/05/26 13:02:17;;;;;;;1.9;1.3;;;;;;;21.87;47.38281;937.171;;;;
2019/05/26 13:04:50;;;;;;;3.3;1.3;;;;;;;21.1;47.55762;937.1611;;;;
2019/05/26 13:07:18;;;;;;;1.6;1.3;;;;;;;21.54;49.95898;937.1479;;;;
2019/05/26 13:09:46;;;;;;;2.5;1.4;;;;;;;21.6;48.63086;937.1433;;;;
2019/05/26 13:12:12;;;;;;;2.2;1.4;;;;;;;22.25;49.62891;937.0823;;;;
2019/05/26 13:14:46;;;;;;;2.2;1.3;;;;;;;21.44;52.08984;937.092;;;;
2019/05/26 13:17:13;;;;;;;1.8;1.4;;;;;;;21.61;50.16504;936.9956;;;;
2019/05/26 13:19:44;;;;;;;2.6;1.3;;;;;;;22.1;50.61914;936.9832;;;;
2019/05/26 13:22:15;;;;;;;2.2;1.2;;;;;;;23.02;46.13184;936.9844;;;;
2019/05/26 13:24:45;;;;;;;3.7;1.2;;;;;;;22.86;46.31445;936.921;;;;
2019/05/26 13:27:14;;;;;;;3;1.2;;;;;;;23.31;45.0332;936.9252;;;;
2019/05/26 13:29:57;;;;;;;2.4;1.4;;;;;;;23.5;45.09863;936.884;;;;
2019/05/26 13:32:24;;;;;;;2.8;1.3;;;;;;;23.48;44.29688;936.8394;;;;
2019/05/26 13:34:52;;;;;;;2.2;1.2;;;;;;;23.92;41.8457;936.783;;;;
2019/05/26 13:37:16;;;;;;;2.5;1.1;;;;;;;24.4;43.90527;936.7979;;;;
2019/05/26 13:39:44;;;;;;;3.8;1.2;;;;;;;24.13;43.52637;936.7599;;;;
2019/05/26 13:42:11;;;;;;;9;1.3;;;;;;;24.68;42.44727;936.7812;;;;
2019/05/26 13:44:35;;;;;;;3.9;1.1;;;;;;;25.22;38.98047;936.7031;;;;
2019/05/26 13:47:11;;;;;;;1.3;1.1;;;;;;;25.07;39.62891;936.6644;;;;
2019/05/26 13:49:39;;;;;;;9;1;;;;;;;24.82;39.86621;936.6987;;;;
2019/05/26 13:52:12;;;;;;;1.4;0.9;;;;;;;24.76;38.23242;936.7082;;;;
2019/05/26 13:54:42;;;;;;;1.3;0.9;;;;;;;24.5;39.36523;936.7178;;;;
2019/05/26 13:57:08;;;;;;;1.6;1.1;;;;;;;24.05;40.50488;936.6934;;;;
2019/05/26 13:59:41;;;;;;;1.7;1.1;;;;;;;23.94;40.89453;936.6884;;;;
2019/05/26 14:02:15;;;;;;;1.5;1;;;;;;;24.11;41.6875;936.6191;;;;
2019/05/26 14:04:44;;;;;;;1.3;1.1;;;;;;;23.46;41.94434;936.6817;;;;
2019/05/26 14:07:10;;;;;;;1.9;1.1;;;;;;;24;42.10059;936.6582;;;;
2019/05/26 14:09:43;;;;;;;2;1;;;;;;;22.91;44.39355;936.6024;;;;
2019/05/26 14:12:13;;;;;;;1.2;1.1;;;;;;;23.47;44.1084;936.5975;;;;
2019/05/26 14:14:39;;;;;;;3.6;1.3;;;;;;;23.74;40.4873;936.6841;;;;
2019/05/26 14:21:01;;;;;;;1.9;1;;;;;;;23.51;42.67871;936.7126;;;;
2019/05/26 14:23:34;;;;;;;2.3;1;;;;;;;23.86;41.6748;936.7141;;;;
2019/05/26 14:26:08;;;;;;;2.2;1;;;;;;;23.6;43.14453;936.7214;;;;
2019/05/26 14:28:45;;;;;;;2.9;1.1;;;;;;;23.77;42.86719;936.6574;;;;
2019/05/26 14:31:16;;;;;;;1.9;1;;;;;;;23.96;41.61426;936.673;;;;
2019/05/26 14:33:51;;;;;;;4.1;0.9;;;;;;;24.17;41.43359;936.6839;;;;
2019/05/26 14:36:23;;;;;;;1.4;1;;;;;;;24.22;39.63574;936.6509;;;;
2019/05/26 14:38:55;;;;;;;1.3;0.9;;;;;;;24.04;41.52734;936.6385;;;;
2019/05/26 14:41:26;;;;;;;2.3;1;;;;;;;23.73;42.62793;936.6683;;;;
2019/05/26 14:44:00;;;;;;;1.4;0.9;;;;;;;23.55;40.19922;936.5951;;;;
2019/05/26 14:46:25;;;;;;;1.1;1;;;;;;;23.3;41.77539;936.6103;;;;
2019/05/26 14:48:54;;;;;;;1.8;1.1;;;;;;;23.81;41.98926;936.5945;;;;
2019/05/26 14:51:31;;;;;;;2.8;1.1;;;;;;;24;41.07617;936.5411;;;;
2019/05/26 14:59:06;;;;;;;1.1;1;;;;;;;23.65;44.25586;936.5327;;;;
2019/05/26 15:01:42;;;;;;;1.9;0.9;;;;;;;23.38;44.22852;936.4899;;;;
2019/05/26 15:04:07;;;;;;;1.7;1.1;;;;;;;23.61;44.0166;936.4641;;;;
2019/05/26 15:06:37;;;;;;;4.5;1;;;;;;;23.82;43.43652;936.4423;;;;
2019/05/26 15:09:06;;;;;;;2;0.9;;;;;;;24.18;42.07129;936.4094;;;;
2019/05/26 15:11:46;;;;;;;1.4;1.1;;;;;;;23.68;41.77637;936.368;;;;
2019/05/26 15:14:09;;;;;;;2.4;1.1;;;;;;;23.11;44.26074;936.4124;;;;
2019/05/26 15:16:40;;;;;;;4.1;1.3;;;;;;;23.28;45.95801;936.3967;;;;
2019/05/26 15:19:14;;;;;;;2.6;1;;;;;;;23.25;45.56738;936.3661;;;;
2019/05/26 15:21:33;;;;;;;8.2;6.6;;;;;;;22.46;44.52441;936.3337;;;;
2019/05/26 15:24:07;;;;;;;2;1.1;;;;;;;22.76;44.42578;936.3033;;;;
2019/05/26 15:26:33;;;;;;;2.2;1;;;;;;;22.78;44.3916;936.2661;;;;
2019/05/26 15:29:08;;;;;;;1.3;1.1;;;;;;;22.89;44.10938;936.2758;;;;
2019/05/26 15:31:35;;;;;;;1.4;1.1;;;;;;;22.53;44.53125;936.2508;;;;
2019/05/26 15:37:53;;;;;;;2;1.1;;;;;;;21.78;46.40137;936.2617;;;;
2019/05/26 15:40:51;;;;;;;3.7;1.1;;;;;;;21.76;46.57422;936.2221;;;;
2019/05/26 15:43:28;;;;;;;2.3;1.2;;;;;;;21.32;48.24902;936.2186;;;;
2019/05/26 15:45:52;;;;;;;1.6;1.1;;;;;;;21.04;48.91895;936.198;;;;
2019/05/26 15:48:28;;;;;;;2.3;1.3;;;;;;;21.11;50.35449;936.2999;;;;
2019/05/26 15:51:02;;;;;;;1.2;1;;;;;;;21.33;49.10449;936.2473;;;;
2019/05/26 15:53:50;;;;;;;2.1;1.3;;;;;;;21.33;50.25098;936.2175;;;;
2019/05/26 15:56:15;;;;;;;4.1;1.3;;;;;;;21.62;49.24121;936.2335;;;;
2019/05/26 15:58:50;;;;;;;2.6;1.3;;;;;;;21.77;48.13281;936.1172;;;;
2019/05/26 16:01:14;;;;;;;2.5;1.2;;;;;;;21.48;49.19141;936.1313;;;;
2019/05/26 16:03:43;;;;;;;1.3;1.2;;;;;;;21.22;49.81738;936.0637;;;;
2019/05/26 16:06:11;;;;;;;3.4;1.3;;;;;;;21.28;50.2334;936.1433;;;;
2019/05/26 16:08:43;;;;;;;6.1;5.5;;;;;;;21.39;50.90137;936.0972;;;;
2019/05/26 16:11:21;;;;;;;7.8;7;;;;;;;21.44;51.9248;936.0691;;;;
2019/05/26 16:13:48;;;;;;;8.1;7.2;;;;;;;21.11;51.91113;936.1653;;;;
2019/05/26 16:16:28;;;;;;;3.7;2.6;;;;;;;20.79;53.60254;936.1021;;;;
2019/05/26 16:19:00;;;;;;;2.3;1.4;;;;;;;20.93;52.56738;936.122;;;;